Time;durP1;ratioP1;P1;durP2;ratioP2;P2;SDS_P1;SDS_P2;PMS_P1;PMS_P2;Temp;Humidity;BMP_temperature;BMP_pressure;BME280_temperature;BME280_humidity;BME280_pressure;Samples;Min_cycle;Max_cycle;Signal;HPM_P1;HPM_P2
2023/10/06 00:01:51;;;;;;;11.55;5.22;;;14.30;99.90;;;;;;5104143;27;36938;-85
2023/10/06 00:04:22;;;;;;;11.25;5.25;;;14.30;99.90;;;;;;5092518;27;37584;-84
2023/10/06 00:06:49;;;;;;;9.90;5.00;;;14.30;99.90;;;;;;5109016;27;37467;-84
2023/10/06 00:09:28;;;;;;;13.85;5.03;;;14.30;99.90;;;;;;5102906;27;38841;-84
2023/10/06 00:11:59;;;;;;;9.90;4.60;;;14.30;99.90;;;;;;5105945;27;36560;-84
2023/10/06 00:14:48;;;;;;;15.70;5.00;;;14.20;99.90;;;;;;5104326;27;36209;-84
2023/10/06 00:17:17;;;;;;;17.42;4.57;;;14.20;99.90;;;;;;5106186;27;38855;-84
2023/10/06 00:19:53;;;;;;;9.82;4.18;;;14.10;99.90;;;;;;5126056;27;38475;-83
2023/10/06 00:22:20;;;;;;;11.70;4.80;;;14.20;99.90;;;;;;5106846;27;36817;-84
2023/10/06 00:24:50;;;;;;;12.77;4.22;;;14.20;99.90;;;;;;5098966;27;38245;-83
2023/10/06 00:27:23;;;;;;;10.35;4.07;;;14.20;99.90;;;;;;5108176;27;38141;-85
2023/10/06 00:29:54;;;;;;;9.65;4.25;;;14.10;99.90;;;;;;5107717;27;39075;-84
2023/10/06 00:32:21;;;;;;;9.30;3.25;;;14.10;99.90;;;;;;5099918;27;38901;-85
2023/10/06 00:34:52;;;;;;;11.40;3.58;;;14.10;99.90;;;;;;5111687;27;37535;-85
2023/10/06 00:37:22;;;;;;;9.52;3.13;;;14.10;99.90;;;;;;5110897;27;38857;-85
2023/10/06 00:39:50;;;;;;;8.32;3.33;;;14.20;99.90;;;;;;5103650;27;39330;-84
2023/10/06 00:42:26;;;;;;;10.35;3.85;;;14.20;99.90;;;;;;5129975;27;36566;-85
2023/10/06 00:44:53;;;;;;;11.32;3.80;;;14.30;99.90;;;;;;5112076;27;37104;-83
2023/10/06 00:47:21;;;;;;;10.52;4.10;;;14.30;99.90;;;;;;5112900;27;37915;-85
2023/10/06 00:49:47;;;;;;;11.35;3.78;;;14.30;99.90;;;;;;5106789;27;38043;-84
2023/10/06 00:52:15;;;;;;;12.30;4.13;;;14.20;99.90;;;;;;5102903;27;36681;-85
2023/10/06 00:54:46;;;;;;;9.32;4.25;;;14.20;99.90;;;;;;5114230;27;37281;-85
2023/10/06 00:57:18;;;;;;;10.18;3.90;;;14.20;99.90;;;;;;5108621;27;39644;-85
2023/10/06 00:59:44;;;;;;;9.07;4.43;;;14.20;99.90;;;;;;5105716;27;38907;-85
2023/10/06 01:02:13;;;;;;;9.25;3.72;;;14.10;99.90;;;;;;5577964;22;38423;-80
2023/10/06 01:04:45;;;;;;;11.18;5.13;;;14.20;99.90;;;;;;4992051;28;36111;-83
2023/10/06 01:07:13;;;;;;;12.13;4.38;;;14.10;99.90;;;;;;5007346;28;39329;-84
2023/10/06 01:09:55;;;;;;;9.20;4.43;;;14.10;99.90;;;;;;5007323;28;38287;-83
2023/10/06 01:12:23;;;;;;;11.15;4.10;;;14.10;99.90;;;;;;5007039;28;37656;-83
2023/10/06 01:14:51;;;;;;;16.75;4.10;;;14.10;99.90;;;;;;5009540;28;36002;-83
2023/10/06 01:17:18;;;;;;;11.68;4.50;;;14.10;99.90;;;;;;5009882;28;37558;-84
2023/10/06 01:19:48;;;;;;;15.25;4.90;;;14.10;99.90;;;;;;5018739;28;37335;-81
2023/10/06 01:22:27;;;;;;;13.45;5.10;;;14.10;99.90;;;;;;5002243;28;37616;-81
2023/10/06 01:24:54;;;;;;;15.68;4.85;;;14.10;99.90;;;;;;5006718;28;37302;-84
2023/10/06 01:27:27;;;;;;;13.25;4.45;;;14.10;99.90;;;;;;5007324;28;39131;-82
2023/10/06 01:32:41;;;;;;;9.25;4.30;;;14.00;99.90;;;;;;4995706;28;49266;-82
2023/10/06 01:35:12;;;;;;;17.13;5.45;;;14.00;99.90;;;;;;5008970;28;37050;-82
2023/10/06 01:37:43;;;;;;;12.30;4.97;;;14.00;99.90;;;;;;5008563;28;38617;-83
2023/10/06 01:42:48;;;;;;;11.18;5.25;;;14.10;99.90;;;;;;5004569;28;38794;-82
2023/10/06 01:45:17;;;;;;;12.95;6.03;;;14.10;99.90;;;;;;4999046;28;37386;-82
2023/10/06 01:47:44;;;;;;;13.15;6.07;;;14.10;99.90;;;;;;5000030;28;37985;-82
2023/10/06 01:50:11;;;;;;;14.02;5.47;;;14.10;99.90;;;;;;5002326;28;39103;-81
2023/10/06 01:52:40;;;;;;;14.65;6.47;;;14.10;99.90;;;;;;4998803;28;37601;-81
2023/10/06 01:55:09;;;;;;;15.50;6.60;;;14.10;99.90;;;;;;5001026;28;37566;-83
2023/10/06 01:57:35;;;;;;;15.80;6.03;;;14.10;99.90;;;;;;4995359;28;38959;-83
2023/10/06 02:00:03;;;;;;;15.68;6.32;;;14.10;99.90;;;;;;5002737;28;38006;-81
2023/10/06 02:02:29;;;;;;;14.95;6.28;;;14.10;99.90;;;;;;4995359;28;38479;-82
2023/10/06 02:04:59;;;;;;;18.50;7.40;;;14.10;99.90;;;;;;5003391;28;37044;-83
2023/10/06 02:07:26;;;;;;;17.80;6.45;;;14.10;99.90;;;;;;4991279;28;37772;-82
2023/10/06 02:09:52;;;;;;;13.20;6.57;;;14.10;99.90;;;;;;5005148;28;38801;-82
2023/10/06 02:12:18;;;;;;;12.25;5.75;;;14.10;99.90;;;;;;4996513;28;37776;-82
2023/10/06 02:14:44;;;;;;;14.57;6.22;;;14.10;99.90;;;;;;5001346;28;36724;-81
2023/10/06 02:17:13;;;;;;;15.73;6.03;;;14.10;99.90;;;;;;5004979;28;39599;-82
2023/10/06 02:19:41;;;;;;;12.15;5.68;;;14.10;99.90;;;;;;5005231;28;37116;-82
2023/10/06 02:22:07;;;;;;;14.05;6.63;;;14.10;99.90;;;;;;5002054;28;36678;-82
2023/10/06 02:24:33;;;;;;;14.18;6.40;;;14.10;99.90;;;;;;5007084;28;36961;-83
2023/10/06 02:27:04;;;;;;;16.40;6.63;;;14.00;99.90;;;;;;5007904;28;38639;-82
2023/10/06 02:29:30;;;;;;;14.82;6.43;;;14.00;99.90;;;;;;4993383;28;47311;-83
2023/10/06 02:32:06;;;;;;;14.07;5.95;;;14.00;99.90;;;;;;5002026;28;36615;-82
2023/10/06 02:34:35;;;;;;;12.48;6.47;;;14.00;99.90;;;;;;5003497;28;48437;-81
2023/10/06 02:37:06;;;;;;;14.88;6.82;;;14.00;99.90;;;;;;4998885;28;37795;-79
2023/10/06 02:39:37;;;;;;;12.55;5.82;;;14.00;99.90;;;;;;4996605;28;38081;-80
2023/10/06 02:42:09;;;;;;;15.25;5.97;;;14.00;99.90;;;;;;5001141;28;37411;-80
2023/10/06 02:44:38;;;;;;;8.00;5.57;;;13.90;99.90;;;;;;5013321;28;37375;-81
2023/10/06 02:47:09;;;;;;;13.70;6.20;;;14.00;99.90;;;;;;4999210;28;39738;-82
2023/10/06 02:49:48;;;;;;;14.90;6.05;;;13.90;99.90;;;;;;5003094;28;37521;-81
2023/10/06 02:52:29;;;;;;;19.05;5.97;;;14.00;99.90;;;;;;4999265;28;37649;-83
2023/10/06 02:55:05;;;;;;;13.85;6.80;;;13.90;99.90;;;;;;4999544;28;36806;-79
2023/10/06 02:57:38;;;;;;;14.43;6.45;;;13.90;99.90;;;;;;5002035;28;48839;-82
2023/10/06 03:03:02;;;;;;;16.33;6.90;;;13.90;99.90;;;;;;5004801;28;49016;-81
2023/10/06 03:05:32;;;;;;;14.25;6.97;;;13.90;99.90;;;;;;4999732;28;46693;-82
2023/10/06 03:08:08;;;;;;;13.07;6.22;;;13.90;99.90;;;;;;5007742;28;38527;-81
2023/10/06 03:10:42;;;;;;;14.30;6.70;;;13.90;99.90;;;;;;5004919;28;47218;-81
2023/10/06 03:13:15;;;;;;;11.75;6.20;;;13.90;99.90;;;;;;5015103;28;36823;-81
2023/10/06 03:15:47;;;;;;;16.08;6.13;;;13.90;99.90;;;;;;5004053;28;36614;-81
2023/10/06 03:18:15;;;;;;;17.80;6.65;;;13.90;99.90;;;;;;5005202;28;37608;-80
2023/10/06 03:20:53;;;;;;;13.38;6.20;;;13.80;99.90;;;;;;5004226;28;38931;-80
2023/10/06 03:23:38;;;;;;;12.13;6.43;;;13.80;99.90;;;;;;4985499;28;35090;-80
2023/10/06 03:26:12;;;;;;;10.23;6.22;;;13.80;99.90;;;;;;5006616;28;37651;-80
2023/10/06 03:28:42;;;;;;;18.58;6.80;;;13.80;99.90;;;;;;5003755;28;38991;-79
2023/10/06 03:33:49;;;;;;;14.35;7.28;;;13.90;99.90;;;;;;5008780;28;38525;-80
2023/10/06 03:36:16;;;;;;;14.27;7.15;;;13.90;99.90;;;;;;5005527;28;35900;-81
2023/10/06 03:38:56;;;;;;;18.15;6.90;;;13.90;99.90;;;;;;5007631;28;39974;-79
2023/10/06 03:41:32;;;;;;;15.00;6.40;;;13.90;99.90;;;;;;5004204;28;37173;-82
2023/10/06 03:44:03;;;;;;;19.83;7.38;;;13.90;99.90;;;;;;5003395;28;38064;-82
2023/10/06 03:46:37;;;;;;;18.58;7.10;;;13.90;99.90;;;;;;5021151;28;47501;-81
2023/10/06 03:49:04;;;;;;;14.70;6.82;;;13.90;99.90;;;;;;5005704;28;38006;-80
2023/10/06 03:51:37;;;;;;;14.90;6.68;;;13.90;99.90;;;;;;5006804;28;38739;-81
2023/10/06 03:54:04;;;;;;;18.30;6.97;;;13.90;99.90;;;;;;5005999;28;37495;-81
2023/10/06 03:56:32;;;;;;;15.40;6.55;;;13.90;99.90;;;;;;5003740;28;36151;-81
2023/10/06 03:58:59;;;;;;;19.08;7.55;;;13.90;99.90;;;;;;5008505;28;38883;-82
2023/10/06 04:01:26;;;;;;;13.68;7.03;;;13.90;99.90;;;;;;5005235;28;36859;-80
2023/10/06 04:03:59;;;;;;;10.82;6.45;;;13.90;99.90;;;;;;5009350;28;38844;-82
2023/10/06 04:06:26;;;;;;;12.35;6.93;;;13.90;99.90;;;;;;5003610;28;38742;-82
2023/10/06 04:08:53;;;;;;;12.68;6.45;;;13.90;99.90;;;;;;5001371;28;39673;-82
2023/10/06 04:11:19;;;;;;;19.73;8.63;;;13.90;99.90;;;;;;5005857;28;37682;-83
2023/10/06 04:13:45;;;;;;;12.95;6.60;;;13.90;99.90;;;;;;5006869;28;36336;-81
2023/10/06 04:16:14;;;;;;;12.75;7.32;;;13.80;99.90;;;;;;5009047;28;36369;-81
2023/10/06 04:18:47;;;;;;;22.25;7.25;;;13.80;99.90;;;;;;5009083;28;37899;-81
2023/10/06 04:21:13;;;;;;;17.30;8.32;;;13.80;99.90;;;;;;5000295;28;38050;-83
2023/10/06 04:23:41;;;;;;;15.40;7.20;;;13.80;99.90;;;;;;5002103;28;37337;-81
2023/10/06 04:26:09;;;;;;;15.20;6.47;;;13.80;99.90;;;;;;5004147;28;38246;-81
2023/10/06 04:28:39;;;;;;;13.25;6.72;;;13.80;99.90;;;;;;4999960;28;37455;-79
2023/10/06 04:31:05;;;;;;;13.88;7.30;;;13.90;99.90;;;;;;4999408;28;39382;-81
2023/10/06 04:33:32;;;;;;;18.95;7.75;;;13.90;99.90;;;;;;5005411;28;36749;-80
2023/10/06 04:36:07;;;;;;;14.90;6.38;;;13.90;99.90;;;;;;5001161;28;35235;-81
2023/10/06 04:38:38;;;;;;;14.75;7.60;;;13.90;99.90;;;;;;5005067;28;47676;-81
2023/10/06 04:41:09;;;;;;;14.77;6.95;;;13.90;99.90;;;;;;4995440;28;38949;-80
2023/10/06 04:43:36;;;;;;;16.58;7.93;;;13.90;99.90;;;;;;5001501;28;37694;-82
2023/10/06 04:46:05;;;;;;;10.65;7.38;;;13.90;99.90;;;;;;5013627;28;36528;-82
2023/10/06 04:48:35;;;;;;;17.15;7.35;;;13.90;99.90;;;;;;5004420;28;38814;-81
2023/10/06 04:51:03;;;;;;;14.93;6.47;;;13.90;99.90;;;;;;5000655;28;37047;-79
2023/10/06 04:53:34;;;;;;;19.55;7.10;;;14.00;99.90;;;;;;5003267;28;36579;-81
2023/10/06 04:56:05;;;;;;;17.23;6.32;;;13.90;99.90;;;;;;5007550;28;36973;-80
2023/10/06 04:58:32;;;;;;;13.38;6.57;;;13.90;99.90;;;;;;5005224;28;47049;-81
2023/10/06 05:01:01;;;;;;;13.55;6.93;;;13.90;99.90;;;;;;5004796;28;37248;-81
2023/10/06 05:03:27;;;;;;;12.38;6.68;;;13.90;99.90;;;;;;5001071;28;47295;-79
2023/10/06 05:05:56;;;;;;;12.05;6.22;;;13.90;99.90;;;;;;5006953;28;36399;-80
2023/10/06 05:08:24;;;;;;;15.73;7.55;;;13.90;99.90;;;;;;5006715;28;37889;-79
2023/10/06 05:10:52;;;;;;;18.88;6.78;;;13.90;99.90;;;;;;5007988;28;37629;-78
2023/10/06 05:13:19;;;;;;;13.95;6.32;;;13.90;99.90;;;;;;5014072;28;38213;-79
2023/10/06 05:15:45;;;;;;;14.93;6.70;;;13.90;99.90;;;;;;5001445;28;37957;-78
2023/10/06 05:18:15;;;;;;;15.50;7.05;;;13.80;99.90;;;;;;5008262;28;37908;-78
2023/10/06 05:20:42;;;;;;;16.50;7.93;;;13.80;99.90;;;;;;5007178;28;38508;-79
2023/10/06 05:23:17;;;;;;;13.02;6.90;;;13.80;99.90;;;;;;5009155;28;37897;-81
2023/10/06 05:25:47;;;;;;;16.02;7.05;;;13.80;99.90;;;;;;5001262;28;37713;-79
2023/10/06 05:28:16;;;;;;;14.40;6.40;;;13.80;99.90;;;;;;5001182;28;37481;-79
2023/10/06 05:30:44;;;;;;;17.08;7.18;;;13.90;99.90;;;;;;5009455;28;38522;-81
2023/10/06 05:33:11;;;;;;;10.32;6.45;;;13.80;99.90;;;;;;5010428;28;38084;-82
2023/10/06 05:35:39;;;;;;;15.05;6.80;;;13.80;99.90;;;;;;5004848;28;37306;-83
2023/10/06 05:38:12;;;;;;;17.40;6.88;;;13.80;99.90;;;;;;4999606;28;39884;-83
2023/10/06 05:40:52;;;;;;;15.70;7.07;;;13.80;99.90;;;;;;4995821;28;37301;-81
2023/10/06 05:43:18;;;;;;;14.30;6.60;;;13.90;99.90;;;;;;5005203;28;36813;-83
2023/10/06 05:45:57;;;;;;;17.05;6.30;;;13.80;99.90;;;;;;5007867;28;35842;-84
2023/10/06 05:48:27;;;;;;;13.10;5.32;;;13.90;99.90;;;;;;5003863;28;37806;-76
2023/10/06 05:51:01;;;;;;;15.80;6.40;;;13.90;99.90;;;;;;4998331;28;36709;-84
2023/10/06 05:53:32;;;;;;;10.73;5.75;;;13.90;99.90;;;;;;5000396;28;46540;-82
2023/10/06 05:56:02;;;;;;;16.63;6.73;;;13.90;99.90;;;;;;4995826;28;37774;-83
2023/10/06 05:58:30;;;;;;;10.57;5.90;;;13.90;99.90;;;;;;5018778;28;46996;-84
2023/10/06 06:00:56;;;;;;;23.27;6.72;;;13.90;99.90;;;;;;5009570;28;37917;-81
2023/10/06 06:03:23;;;;;;;15.88;6.47;;;13.90;99.90;;;;;;5005898;28;36598;-83
2023/10/06 06:05:52;;;;;;;12.68;5.65;;;14.00;99.90;;;;;;5001474;28;38038;-82
2023/10/06 06:08:22;;;;;;;15.63;6.18;;;14.00;99.90;;;;;;5002979;28;38586;-83
2023/10/06 06:10:48;;;;;;;14.82;6.05;;;14.00;99.90;;;;;;5008613;28;39306;-81
2023/10/06 06:13:16;;;;;;;11.38;6.13;;;14.00;99.90;;;;;;5007406;28;36692;-79
2023/10/06 06:15:42;;;;;;;10.70;5.70;;;14.10;99.90;;;;;;5007208;28;37054;-79
2023/10/06 06:18:13;;;;;;;11.25;5.63;;;14.10;99.90;;;;;;5008787;28;38906;-76
2023/10/06 06:20:44;;;;;;;11.30;5.68;;;14.10;99.90;;;;;;5005727;28;38120;-83
2023/10/06 06:23:15;;;;;;;13.07;5.68;;;14.10;99.90;;;;;;5005762;28;36552;-80
2023/10/06 06:25:42;;;;;;;13.43;5.57;;;14.20;99.90;;;;;;5004366;28;35432;-83
2023/10/06 06:28:12;;;;;;;11.93;6.00;;;14.20;99.90;;;;;;5006760;28;38149;-83
2023/10/06 06:30:42;;;;;;;12.48;6.15;;;14.20;99.90;;;;;;5000121;28;39268;-82
2023/10/06 06:33:12;;;;;;;11.98;5.95;;;14.20;99.90;;;;;;5005915;28;36552;-83
2023/10/06 06:35:42;;;;;;;12.55;5.82;;;14.20;99.90;;;;;;5008823;28;38566;-83
2023/10/06 06:38:08;;;;;;;15.35;5.70;;;14.20;99.90;;;;;;5005050;28;38650;-84
2023/10/06 06:40:37;;;;;;;13.52;5.40;;;14.30;99.90;;;;;;5006484;28;38521;-84
2023/10/06 06:43:09;;;;;;;12.77;5.72;;;14.30;99.90;;;;;;5004717;28;36751;-84
2023/10/06 06:45:39;;;;;;;17.20;7.23;;;14.30;99.90;;;;;;5008352;28;37373;-83
2023/10/06 06:48:12;;;;;;;14.90;6.03;;;14.40;99.90;;;;;;5004130;28;39360;-82
2023/10/06 06:50:47;;;;;;;11.85;6.40;;;14.40;99.90;;;;;;5004317;28;38157;-83
2023/10/06 06:53:13;;;;;;;16.58;6.50;;;14.40;99.90;;;;;;5019010;28;36430;-84
2023/10/06 06:55:43;;;;;;;14.00;5.88;;;14.40;99.90;;;;;;5007005;28;37922;-82
2023/10/06 06:58:10;;;;;;;15.88;6.00;;;14.50;99.90;;;;;;5004569;28;39403;-84
2023/10/06 07:00:40;;;;;;;13.88;6.32;;;14.50;99.90;;;;;;5008205;28;39041;-83
2023/10/06 07:03:07;;;;;;;15.95;6.38;;;14.50;99.90;;;;;;5004634;28;36536;-83
2023/10/06 07:05:36;;;;;;;14.30;6.63;;;14.60;99.90;;;;;;5007351;28;37185;-83
2023/10/06 07:08:06;;;;;;;10.88;5.72;;;14.60;99.90;;;;;;5003922;28;36559;-83
2023/10/06 07:10:32;;;;;;;15.98;7.07;;;14.60;99.90;;;;;;5005247;28;38072;-85
2023/10/06 07:12:58;;;;;;;13.48;6.70;;;14.70;99.90;;;;;;5000908;28;38720;-85
2023/10/06 07:15:29;;;;;;;17.10;6.75;;;14.70;99.90;;;;;;4999974;28;37203;-85
2023/10/06 07:17:57;;;;;;;18.63;6.70;;;14.80;99.90;;;;;;5000460;28;38287;-85
2023/10/06 07:20:30;;;;;;;17.52;6.88;;;14.80;99.90;;;;;;5001523;28;37307;-83
2023/10/06 07:23:01;;;;;;;13.13;6.35;;;14.80;99.90;;;;;;5003947;28;36762;-84
2023/10/06 07:25:27;;;;;;;11.15;6.60;;;15.00;99.90;;;;;;5004544;28;48882;-83
2023/10/06 07:27:57;;;;;;;10.38;6.40;;;15.10;99.90;;;;;;5003109;28;37557;-83
2023/10/06 07:30:25;;;;;;;16.00;6.25;;;15.10;99.90;;;;;;5004481;28;38888;-83
2023/10/06 07:32:54;;;;;;;14.30;6.40;;;15.20;99.90;;;;;;5005751;28;38005;-83
2023/10/06 07:35:30;;;;;;;14.38;6.53;;;15.30;99.90;;;;;;5002687;28;36614;-84
2023/10/06 07:37:57;;;;;;;16.63;6.80;;;15.40;99.90;;;;;;5006727;28;38998;-83
2023/10/06 07:40:27;;;;;;;15.18;6.20;;;15.50;99.90;;;;;;5007372;28;38317;-82
2023/10/06 07:42:55;;;;;;;13.10;6.45;;;15.60;99.90;;;;;;5006100;28;36939;-81
2023/10/06 07:45:21;;;;;;;13.68;6.47;;;15.70;99.90;;;;;;5000329;28;36906;-82
2023/10/06 07:47:48;;;;;;;14.13;5.93;;;15.70;99.90;;;;;;5004404;28;39265;-83
2023/10/06 07:50:15;;;;;;;11.63;5.95;;;15.80;99.90;;;;;;5007673;28;39085;-84
2023/10/06 07:52:43;;;;;;;12.60;5.68;;;15.90;99.90;;;;;;5005619;28;37438;-83
2023/10/06 07:55:12;;;;;;;18.55;6.18;;;15.90;99.90;;;;;;5005766;28;36234;-84
2023/10/06 07:57:42;;;;;;;14.75;6.05;;;16.00;99.90;;;;;;5006761;28;38978;-83
2023/10/06 08:00:18;;;;;;;14.68;5.90;;;16.00;99.90;;;;;;5013518;28;38314;-83
2023/10/06 08:02:45;;;;;;;16.90;6.15;;;16.00;99.90;;;;;;4997008;28;38131;-84
2023/10/06 08:05:13;;;;;;;16.42;5.90;;;16.00;99.90;;;;;;5009273;28;36455;-83
2023/10/06 08:07:43;;;;;;;12.38;6.15;;;16.00;99.90;;;;;;4999820;28;39825;-84
2023/10/06 08:10:15;;;;;;;13.32;5.30;;;16.00;99.90;;;;;;5003506;28;39124;-85
2023/10/06 08:12:43;;;;;;;12.57;5.85;;;16.10;99.90;;;;;;5000537;28;37873;-84
2023/10/06 08:15:11;;;;;;;13.30;5.28;;;16.10;99.90;;;;;;4999576;28;36253;-82
2023/10/06 08:17:37;;;;;;;13.63;5.88;;;16.20;99.90;;;;;;4998491;28;38913;-83
2023/10/06 08:20:07;;;;;;;16.60;6.35;;;16.30;99.90;;;;;;5015553;28;38252;-85
2023/10/06 08:22:34;;;;;;;15.75;5.82;;;16.30;99.90;;;;;;4999930;28;48770;-83
2023/10/06 08:25:05;;;;;;;9.70;5.38;;;16.40;99.90;;;;;;5014210;28;37259;-83
2023/10/06 08:27:35;;;;;;;16.83;5.88;;;16.50;99.90;;;;;;5000419;28;47642;-85
2023/10/06 08:30:09;;;;;;;11.30;5.30;;;16.50;99.90;;;;;;5006995;28;38247;-83
2023/10/06 08:32:35;;;;;;;13.10;5.10;;;16.60;99.90;;;;;;5003280;28;47130;-83
2023/10/06 08:35:01;;;;;;;13.27;4.93;;;16.60;99.90;;;;;;5005422;28;36304;-82
2023/10/06 08:37:29;;;;;;;13.70;4.90;;;16.60;99.90;;;;;;5005353;28;36761;-84
2023/10/06 08:39:55;;;;;;;13.50;5.07;;;16.50;99.90;;;;;;5002489;28;39726;-84
2023/10/06 08:42:22;;;;;;;14.18;5.00;;;16.50;99.90;;;;;;5017548;28;36567;-84
2023/10/06 08:44:48;;;;;;;11.18;4.40;;;16.60;99.90;;;;;;5000547;28;37301;-84
2023/10/06 08:47:14;;;;;;;9.75;4.85;;;16.60;99.90;;;;;;5022543;28;38633;-85
2023/10/06 08:49:41;;;;;;;13.43;5.30;;;16.50;99.90;;;;;;5002818;28;37605;-84
2023/10/06 08:52:09;;;;;;;11.02;5.18;;;16.50;99.90;;;;;;5011135;28;37951;-84
2023/10/06 08:54:37;;;;;;;11.48;5.32;;;16.60;99.90;;;;;;5010351;28;36216;-85
2023/10/06 08:57:03;;;;;;;13.93;4.95;;;16.50;99.90;;;;;;5004365;28;39111;-83
2023/10/06 08:59:33;;;;;;;12.02;4.93;;;16.50;99.90;;;;;;5006477;28;38312;-84
2023/10/06 09:02:01;;;;;;;10.65;5.07;;;16.60;99.90;;;;;;5005412;28;37516;-83
2023/10/06 09:04:37;;;;;;;15.77;5.05;;;16.60;99.90;;;;;;5004515;28;47727;-84
2023/10/06 09:07:12;;;;;;;13.45;4.65;;;16.70;99.90;;;;;;5004657;28;38599;-84
2023/10/06 09:09:40;;;;;;;13.27;4.85;;;16.70;99.90;;;;;;5006963;28;37370;-85
2023/10/06 09:12:09;;;;;;;9.23;4.47;;;16.80;99.90;;;;;;5007371;28;36653;-83
2023/10/06 09:14:52;;;;;;;10.98;4.18;;;16.80;99.90;;;;;;5022128;28;36809;-84
2023/10/06 09:17:32;;;;;;;10.63;4.47;;;16.80;99.90;;;;;;5002938;28;37554;-85
2023/10/06 09:19:59;;;;;;;11.52;4.00;;;16.90;99.90;;;;;;5006365;28;39326;-82
2023/10/06 09:22:29;;;;;;;11.60;4.22;;;17.00;99.90;;;;;;5003560;28;37396;-85
2023/10/06 09:25:00;;;;;;;10.82;4.68;;;17.10;99.90;;;;;;5004282;28;36326;-83
2023/10/06 09:27:28;;;;;;;15.27;4.63;;;17.10;99.90;;;;;;5005570;28;37689;-83
2023/10/06 09:30:02;;;;;;;10.75;4.40;;;17.10;99.90;;;;;;5006676;28;37035;-84
2023/10/06 09:32:28;;;;;;;15.88;5.35;;;17.20;99.90;;;;;;5004955;28;36981;-84
2023/10/06 09:34:57;;;;;;;9.77;4.28;;;17.20;99.90;;;;;;5002057;28;36682;-84
2023/10/06 09:37:24;;;;;;;13.40;4.47;;;17.20;99.90;;;;;;5003503;28;38664;-84
2023/10/06 09:39:59;;;;;;;15.88;4.95;;;17.30;99.90;;;;;;5005853;28;38076;-84
2023/10/06 09:42:30;;;;;;;12.10;4.30;;;17.20;99.90;;;;;;5006318;28;37618;-85
2023/10/06 09:45:15;;;;;;;10.57;4.20;;;17.10;99.90;;;;;;5005749;28;36080;-86
2023/10/06 09:47:50;;;;;;;12.45;3.90;;;17.20;99.90;;;;;;5006190;28;48798;-84
2023/10/06 09:50:19;;;;;;;12.00;3.97;;;17.20;99.90;;;;;;5003207;28;37253;-84
2023/10/06 09:52:47;;;;;;;14.95;4.15;;;17.20;99.90;;;;;;4998228;28;37526;-83
2023/10/06 09:55:19;;;;;;;12.02;4.35;;;17.30;99.90;;;;;;5005591;28;37183;-83
2023/10/06 09:57:47;;;;;;;7.85;3.92;;;17.40;99.90;;;;;;5007297;28;37600;-83
2023/10/06 10:00:16;;;;;;;12.38;3.75;;;17.40;99.90;;;;;;5008337;28;37482;-83
2023/10/06 10:02:48;;;;;;;11.20;3.83;;;17.40;99.90;;;;;;5005784;28;37476;-84
2023/10/06 10:05:19;;;;;;;15.52;4.45;;;17.50;99.90;;;;;;5004872;28;37211;-84
2023/10/06 10:07:48;;;;;;;13.05;3.85;;;17.60;99.90;;;;;;5006835;28;39532;-84
2023/10/06 10:10:27;;;;;;;13.20;3.90;;;17.70;99.90;;;;;;5005875;28;37080;-82
2023/10/06 10:12:59;;;;;;;11.50;4.00;;;17.70;99.90;;;;;;5000389;28;36428;-84
2023/10/06 10:16:02;;;;;;;10.18;3.65;;;17.80;99.90;;;;;;5001892;28;36918;-81
2023/10/06 10:19:07;;;;;;;12.20;4.03;;;17.70;99.90;;;;;;4995885;28;47145;-83
2023/10/06 10:21:36;;;;;;;13.73;3.97;;;17.70;99.90;;;;;;4994556;28;48860;-83
2023/10/06 10:24:06;;;;;;;15.13;4.55;;;17.70;99.90;;;;;;5002931;28;37355;-85
2023/10/06 10:26:37;;;;;;;10.98;3.50;;;17.70;99.90;;;;;;5005929;28;36451;-84
2023/10/06 10:29:12;;;;;;;9.23;3.78;;;17.70;99.90;;;;;;5002369;28;39853;-85
2023/10/06 10:31:39;;;;;;;9.02;3.58;;;17.70;99.90;;;;;;4993452;28;37058;-84
2023/10/06 10:34:08;;;;;;;12.80;4.65;;;17.70;99.90;;;;;;4998411;28;39607;-82
2023/10/06 10:36:35;;;;;;;13.55;4.07;;;17.70;99.90;;;;;;5007146;28;36972;-83
2023/10/06 10:39:09;;;;;;;12.80;4.25;;;17.70;99.90;;;;;;5003861;28;38931;-84
2023/10/06 10:41:37;;;;;;;10.85;3.92;;;17.70;99.90;;;;;;5000421;28;47008;-85
2023/10/06 10:44:08;;;;;;;17.67;3.58;;;17.80;99.90;;;;;;5006007;28;36537;-83
2023/10/06 10:46:56;;;;;;;12.27;3.67;;;17.80;99.90;;;;;;5004532;28;36242;-85
2023/10/06 10:49:22;;;;;;;13.52;4.15;;;17.90;99.90;;;;;;4997516;28;39859;-83
2023/10/06 10:51:51;;;;;;;10.45;3.85;;;17.90;99.90;;;;;;5017429;28;37621;-83
2023/10/06 10:54:22;;;;;;;12.70;3.95;;;17.90;99.90;;;;;;5002623;28;36692;-83
2023/10/06 10:56:51;;;;;;;11.23;3.50;;;17.90;99.90;;;;;;5004255;28;38016;-82
2023/10/06 10:59:19;;;;;;;11.90;3.70;;;18.00;99.90;;;;;;5005815;28;37571;-83
2023/10/06 11:01:51;;;;;;;14.48;3.35;;;17.90;99.90;;;;;;5007541;28;38059;-82
2023/10/06 11:04:21;;;;;;;14.57;3.58;;;18.00;99.90;;;;;;5007936;28;38032;-82
2023/10/06 11:06:49;;;;;;;13.18;3.42;;;18.00;99.90;;;;;;5004595;28;35507;-80
2023/10/06 11:09:29;;;;;;;13.38;3.63;;;18.00;99.90;;;;;;5009636;28;37263;-81
2023/10/06 11:12:00;;;;;;;17.25;3.55;;;18.00;99.90;;;;;;5004103;28;37398;-81
2023/10/06 11:14:29;;;;;;;13.82;3.60;;;18.10;99.90;;;;;;5005999;28;36777;-82
2023/10/06 11:17:03;;;;;;;11.13;3.55;;;18.20;99.90;;;;;;5005263;28;36950;-82
2023/10/06 11:19:31;;;;;;;16.40;4.15;;;18.30;99.90;;;;;;5005051;28;47487;-82
2023/10/06 11:22:11;;;;;;;13.52;3.10;;;18.40;99.90;;;;;;5007236;28;39116;-81
2023/10/06 11:24:39;;;;;;;12.23;3.05;;;18.50;99.90;;;;;;5004766;28;47293;-82
2023/10/06 11:27:22;;;;;;;10.05;3.38;;;18.40;99.90;;;;;;5007944;28;37786;-82
2023/10/06 11:29:52;;;;;;;12.80;3.95;;;18.40;99.90;;;;;;5015222;28;39644;-82
2023/10/06 11:32:19;;;;;;;12.10;3.03;;;18.40;99.90;;;;;;5015902;28;36964;-82
2023/10/06 11:34:45;;;;;;;12.80;3.65;;;18.60;99.90;;;;;;5015612;28;36680;-82
2023/10/06 11:37:12;;;;;;;10.93;3.58;;;18.60;99.90;;;;;;5004354;28;36696;-83
2023/10/06 11:39:39;;;;;;;11.35;3.35;;;18.70;99.90;;;;;;5003816;28;37747;-82
2023/10/06 11:42:41;;;;;;;16.08;3.65;;;18.70;99.90;;;;;;5001850;28;38247;-82
2023/10/06 11:45:24;;;;;;;17.45;4.10;;;18.80;99.90;;;;;;5005926;28;38933;-81
2023/10/06 11:47:51;;;;;;;14.27;3.55;;;19.10;99.90;;;;;;5002796;28;37906;-82
2023/10/06 11:50:23;;;;;;;15.88;3.67;;;19.20;99.90;;;;;;5007663;28;38903;-81
2023/10/06 11:52:50;;;;;;;14.63;3.17;;;19.10;99.90;;;;;;5004138;28;38540;-82
2023/10/06 11:55:43;;;;;;;12.90;3.85;;;19.10;99.90;;;;;;5004909;28;38599;-82
2023/10/06 11:58:10;;;;;;;14.05;3.40;;;19.00;99.90;;;;;;5002952;28;37398;-83
2023/10/06 12:00:45;;;;;;;15.43;4.00;;;18.90;99.90;;;;;;5006890;28;37737;-82
2023/10/06 12:03:11;;;;;;;14.68;3.45;;;19.20;99.90;;;;;;5007106;28;38561;-82
2023/10/06 12:05:55;;;;;;;11.00;3.00;;;19.30;99.90;;;;;;5006222;28;37465;-82
2023/10/06 12:08:21;;;;;;;12.18;3.58;;;19.40;99.90;;;;;;5008962;28;37872;-81
2023/10/06 12:10:51;;;;;;;11.98;3.00;;;19.50;99.90;;;;;;5012103;28;38708;-83
2023/10/06 12:13:18;;;;;;;14.23;4.35;;;19.70;99.90;;;;;;5007474;28;38228;-82
2023/10/06 12:15:45;;;;;;;10.32;3.80;;;19.80;99.90;;;;;;5009107;28;38685;-82
2023/10/06 12:18:13;;;;;;;20.08;3.80;;;19.80;99.90;;;;;;5011423;28;37129;-82
2023/10/06 12:20:40;;;;;;;13.13;3.70;;;19.80;99.90;;;;;;5009106;28;37518;-83
2023/10/06 12:23:07;;;;;;;11.50;3.55;;;19.80;99.90;;;;;;5010105;28;38230;-84
2023/10/06 12:25:33;;;;;;;12.82;4.00;;;19.70;99.90;;;;;;5012119;28;37605;-82
2023/10/06 12:28:00;;;;;;;13.30;4.20;;;19.60;99.90;;;;;;5010396;28;36152;-82
2023/10/06 12:30:28;;;;;;;17.08;4.07;;;19.30;99.90;;;;;;5007354;28;37594;-82
2023/10/06 12:32:54;;;;;;;11.75;3.85;;;19.30;99.90;;;;;;5008050;28;37010;-82
2023/10/06 12:35:21;;;;;;;8.40;3.42;;;19.40;99.90;;;;;;5003178;28;38232;-81
2023/10/06 12:37:48;;;;;;;14.25;3.45;;;19.50;99.90;;;;;;5021209;28;37120;-80
2023/10/06 12:40:16;;;;;;;16.85;3.45;;;19.70;99.90;;;;;;5005170;28;39097;-81
2023/10/06 12:42:43;;;;;;;16.23;4.43;;;19.90;99.90;;;;;;5007060;28;38000;-81
2023/10/06 12:45:18;;;;;;;10.23;3.47;;;20.00;99.90;;;;;;5006913;28;36646;-82
2023/10/06 12:47:48;;;;;;;9.10;3.53;;;20.10;99.90;;;;;;5012009;28;36866;-81
2023/10/06 12:50:19;;;;;;;8.18;2.88;;;20.30;99.90;;;;;;5011318;28;37736;-81
2023/10/06 12:52:51;;;;;;;13.18;3.63;;;20.30;99.90;;;;;;5011486;28;38482;-81
2023/10/06 12:55:24;;;;;;;12.65;3.30;;;20.30;99.90;;;;;;5000662;28;38803;-80
2023/10/06 12:57:52;;;;;;;13.63;3.38;;;20.30;99.90;;;;;;5004765;28;36261;-80
2023/10/06 13:00:19;;;;;;;14.18;3.88;;;20.40;99.90;;;;;;5003985;28;37595;-80
2023/10/06 13:02:47;;;;;;;11.52;3.55;;;20.30;99.90;;;;;;5003747;28;47016;-79
2023/10/06 13:05:18;;;;;;;18.05;3.67;;;20.40;99.90;;;;;;5003210;28;38972;-80